Terminal Aerodrome Forecast
Issued by NWS Tuscon, AZ

Home | Current Version | Previous Version | Text Only | Print | Product List | Glossary On
Versions: 1 2 3 4 5 6 7 8 9 10 11 12
647
FTUS45 KTWC 290338 AAB
TAFTUS
TAF AMD
KTUS 290338Z 2904/2924 30012G18KT P6SM FEW100
     FM290700 25006KT P6SM SKC
     FM291900 31014G22KT P6SM SKC=

USA.gov is the U.S. government's official web portal to all federal, state and local government web resources and services.